sensor_id;sensor_type;location;lat;lon;timestamp;temperature;humidity
76384;SHT30;65204;48.606;7.598;2024-01-06T00:00:27;11.37;59.98
76384;SHT30;65204;48.606;7.598;2024-01-06T00:00:58;11.37;59.96
76384;SHT30;65204;48.606;7.598;2024-01-06T00:01:28;11.36;60.01
76384;SHT30;65204;48.606;7.598;2024-01-06T00:01:58;11.37;59.97
76384;SHT30;65204;48.606;7.598;2024-01-06T00:02:29;11.39;59.95
76384;SHT30;65204;48.606;7.598;2024-01-06T00:02:59;11.36;59.94
76384;SHT30;65204;48.606;7.598;2024-01-06T00:03:29;11.40;59.93
76384;SHT30;65204;48.606;7.598;2024-01-06T00:04:00;11.39;59.97
76384;SHT30;65204;48.606;7.598;2024-01-06T00:04:30;11.39;59.93
76384;SHT30;65204;48.606;7.598;2024-01-06T00:05:01;11.39;59.96
76384;SHT30;65204;48.606;7.598;2024-01-06T00:05:31;11.39;59.94
76384;SHT30;65204;48.606;7.598;2024-01-06T00:06:01;11.40;59.92
76384;SHT30;65204;48.606;7.598;2024-01-06T00:06:32;11.39;59.96
76384;SHT30;65204;48.606;7.598;2024-01-06T00:07:02;11.40;59.94
76384;SHT30;65204;48.606;7.598;2024-01-06T00:07:33;11.39;59.96
76384;SHT30;65204;48.606;7.598;2024-01-06T00:08:03;11.39;59.95
76384;SHT30;65204;48.606;7.598;2024-01-06T00:08:34;11.37;59.92
76384;SHT30;65204;48.606;7.598;2024-01-06T00:09:04;11.40;59.91
76384;SHT30;65204;48.606;7.598;2024-01-06T00:09:35;11.39;59.95
76384;SHT30;65204;48.606;7.598;2024-01-06T00:10:06;11.39;59.92
76384;SHT30;65204;48.606;7.598;2024-01-06T00:10:36;11.37;59.90
76384;SHT30;65204;48.606;7.598;2024-01-06T00:11:07;11.36;59.88
76384;SHT30;65204;48.606;7.598;2024-01-06T00:11:38;11.41;59.86
76384;SHT30;65204;48.606;7.598;2024-01-06T00:12:08;11.39;59.88
76384;SHT30;65204;48.606;7.598;2024-01-06T00:12:38;11.39;59.82
76384;SHT30;65204;48.606;7.598;2024-01-06T00:13:10;11.39;59.81
76384;SHT30;65204;48.606;7.598;2024-01-06T00:13:40;11.39;59.83
76384;SHT30;65204;48.606;7.598;2024-01-06T00:14:11;11.37;59.84
76384;SHT30;65204;48.606;7.598;2024-01-06T00:14:41;11.39;59.84
76384;SHT30;65204;48.606;7.598;2024-01-06T00:15:14;11.37;59.80
76384;SHT30;65204;48.606;7.598;2024-01-06T00:15:44;11.39;59.80
76384;SHT30;65204;48.606;7.598;2024-01-06T00:16:18;11.37;59.76
76384;SHT30;65204;48.606;7.598;2024-01-06T00:16:49;11.39;59.78
76384;SHT30;65204;48.606;7.598;2024-01-06T00:17:19;11.36;59.79
76384;SHT30;65204;48.606;7.598;2024-01-06T00:17:50;11.37;59.78
76384;SHT30;65204;48.606;7.598;2024-01-06T00:18:20;11.39;59.76
76384;SHT30;65204;48.606;7.598;2024-01-06T00:18:50;11.37;59.80
76384;SHT30;65204;48.606;7.598;2024-01-06T00:19:21;11.36;59.79
76384;SHT30;65204;48.606;7.598;2024-01-06T00:19:51;11.39;59.77
76384;SHT30;65204;48.606;7.598;2024-01-06T00:20:21;11.40;59.75
76384;SHT30;65204;48.606;7.598;2024-01-06T00:20:52;11.37;59.79
76384;SHT30;65204;48.606;7.598;2024-01-06T00:21:22;11.36;59.76
76384;SHT30;65204;48.606;7.598;2024-01-06T00:21:53;11.36;59.78
76384;SHT30;65204;48.606;7.598;2024-01-06T00:22:23;11.37;59.77
76384;SHT30;65204;48.606;7.598;2024-01-06T00:22:54;11.37;59.74
76384;SHT30;65204;48.606;7.598;2024-01-06T00:23:26;11.37;59.78
76384;SHT30;65204;48.606;7.598;2024-01-06T00:23:56;11.39;59.75
76384;SHT30;65204;48.606;7.598;2024-01-06T00:24:27;11.37;59.73
76384;SHT30;65204;48.606;7.598;2024-01-06T00:24:57;11.37;59.74
76384;SHT30;65204;48.606;7.598;2024-01-06T00:25:28;11.34;59.71
76384;SHT30;65204;48.606;7.598;2024-01-06T00:25:58;11.37;59.69
76384;SHT30;65204;48.606;7.598;2024-01-06T00:26:29;11.36;59.69
76384;SHT30;65204;48.606;7.598;2024-01-06T00:26:59;11.37;59.68
76384;SHT30;65204;48.606;7.598;2024-01-06T00:27:29;11.36;59.67
76384;SHT30;65204;48.606;7.598;2024-01-06T00:28:00;11.39;59.66
76384;SHT30;65204;48.606;7.598;2024-01-06T00:28:30;11.36;59.65
76384;SHT30;65204;48.606;7.598;2024-01-06T00:29:00;11.39;59.68
76384;SHT30;65204;48.606;7.598;2024-01-06T00:29:30;11.37;59.62
76384;SHT30;65204;48.606;7.598;2024-01-06T00:30:01;11.37;59.59
76384;SHT30;65204;48.606;7.598;2024-01-06T00:30:31;11.37;59.58
76384;SHT30;65204;48.606;7.598;2024-01-06T00:31:02;11.37;59.58
76384;SHT30;65204;48.606;7.598;2024-01-06T00:31:32;11.39;59.59
76384;SHT30;65204;48.606;7.598;2024-01-06T00:32:03;11.34;59.63
76384;SHT30;65204;48.606;7.598;2024-01-06T00:32:33;11.34;59.58
76384;SHT30;65204;48.606;7.598;2024-01-06T00:33:04;11.36;59.59
76384;SHT30;65204;48.606;7.598;2024-01-06T00:33:34;11.39;59.63
76384;SHT30;65204;48.606;7.598;2024-01-06T00:34:04;11.34;59.62
76384;SHT30;65204;48.606;7.598;2024-01-06T00:34:35;11.37;59.59
76384;SHT30;65204;48.606;7.598;2024-01-06T00:35:05;11.36;59.57
76384;SHT30;65204;48.606;7.598;2024-01-06T00:35:36;11.34;59.56
76384;SHT30;65204;48.606;7.598;2024-01-06T00:36:07;11.34;59.56
76384;SHT30;65204;48.606;7.598;2024-01-06T00:36:38;11.34;59.62
76384;SHT30;65204;48.606;7.598;2024-01-06T00:37:08;11.36;59.59
76384;SHT30;65204;48.606;7.598;2024-01-06T00:37:38;11.33;59.57
76384;SHT30;65204;48.606;7.598;2024-01-06T00:38:08;11.36;59.56
76384;SHT30;65204;48.606;7.598;2024-01-06T00:38:39;11.37;59.51
76384;SHT30;65204;48.606;7.598;2024-01-06T00:39:09;11.36;59.52
76384;SHT30;65204;48.606;7.598;2024-01-06T00:39:39;11.36;59.52
76384;SHT30;65204;48.606;7.598;2024-01-06T00:40:10;11.34;59.51
76384;SHT30;65204;48.606;7.598;2024-01-06T00:40:41;11.34;59.51
76384;SHT30;65204;48.606;7.598;2024-01-06T00:41:11;11.36;59.53
76384;SHT30;65204;48.606;7.598;2024-01-06T00:41:42;11.34;59.53
76384;SHT30;65204;48.606;7.598;2024-01-06T00:42:12;11.34;59.53
76384;SHT30;65204;48.606;7.598;2024-01-06T00:42:42;11.36;59.53
76384;SHT30;65204;48.606;7.598;2024-01-06T00:43:12;11.36;59.52
76384;SHT30;65204;48.606;7.598;2024-01-06T00:43:43;11.33;59.47
76384;SHT30;65204;48.606;7.598;2024-01-06T00:44:13;11.36;59.50
76384;SHT30;65204;48.606;7.598;2024-01-06T00:44:43;11.36;59.50
76384;SHT30;65204;48.606;7.598;2024-01-06T00:45:17;11.33;59.50
76384;SHT30;65204;48.606;7.598;2024-01-06T00:45:48;11.34;59.49
76384;SHT30;65204;48.606;7.598;2024-01-06T00:46:18;11.33;59.47
76384;SHT30;65204;48.606;7.598;2024-01-06T00:46:49;11.36;59.47
76384;SHT30;65204;48.606;7.598;2024-01-06T00:47:19;11.36;59.52
76384;SHT30;65204;48.606;7.598;2024-01-06T00:47:52;11.31;59.50
76384;SHT30;65204;48.606;7.598;2024-01-06T00:48:23;11.34;59.50
76384;SHT30;65204;48.606;7.598;2024-01-06T00:48:53;11.34;59.50
76384;SHT30;65204;48.606;7.598;2024-01-06T00:49:23;11.33;59.52
76384;SHT30;65204;48.606;7.598;2024-01-06T00:49:54;11.34;59.52
76384;SHT30;65204;48.606;7.598;2024-01-06T00:50:24;11.33;59.50
76384;SHT30;65204;48.606;7.598;2024-01-06T00:50:54;11.31;59.51
76384;SHT30;65204;48.606;7.598;2024-01-06T00:51:25;11.33;59.49
76384;SHT30;65204;48.606;7.598;2024-01-06T00:51:55;11.33;59.47
76384;SHT30;65204;48.606;7.598;2024-01-06T00:52:26;11.34;59.49
76384;SHT30;65204;48.606;7.598;2024-01-06T00:52:56;11.33;59.48
76384;SHT30;65204;48.606;7.598;2024-01-06T00:53:27;11.33;59.45
76384;SHT30;65204;48.606;7.598;2024-01-06T00:54:00;11.33;59.50
76384;SHT30;65204;48.606;7.598;2024-01-06T00:54:30;11.31;59.46
76384;SHT30;65204;48.606;7.598;2024-01-06T00:55:00;11.34;59.48
76384;SHT30;65204;48.606;7.598;2024-01-06T00:55:31;11.30;59.47
76384;SHT30;65204;48.606;7.598;2024-01-06T00:56:02;11.34;59.50
76384;SHT30;65204;48.606;7.598;2024-01-06T00:56:32;11.33;59.54
76384;SHT30;65204;48.606;7.598;2024-01-06T00:57:03;11.34;59.47
76384;SHT30;65204;48.606;7.598;2024-01-06T00:57:34;11.31;59.48
76384;SHT30;65204;48.606;7.598;2024-01-06T00:58:04;11.34;59.48
76384;SHT30;65204;48.606;7.598;2024-01-06T00:58:35;11.31;59.46
76384;SHT30;65204;48.606;7.598;2024-01-06T00:59:05;11.31;59.48
76384;SHT30;65204;48.606;7.598;2024-01-06T00:59:36;11.34;59.45
76384;SHT30;65204;48.606;7.598;2024-01-06T01:00:06;11.33;59.46
76384;SHT30;65204;48.606;7.598;2024-01-06T01:00:37;11.30;59.42
76384;SHT30;65204;48.606;7.598;2024-01-06T01:01:07;11.31;59.42
76384;SHT30;65204;48.606;7.598;2024-01-06T01:01:38;11.33;59.45
76384;SHT30;65204;48.606;7.598;2024-01-06T01:02:08;11.33;59.44
76384;SHT30;65204;48.606;7.598;2024-01-06T01:02:39;11.33;59.43
76384;SHT30;65204;48.606;7.598;2024-01-06T01:03:09;11.33;59.38
76384;SHT30;65204;48.606;7.598;2024-01-06T01:03:39;11.34;59.40
76384;SHT30;65204;48.606;7.598;2024-01-06T01:04:10;11.34;59.41
76384;SHT30;65204;48.606;7.598;2024-01-06T01:04:40;11.33;59.38
76384;SHT30;65204;48.606;7.598;2024-01-06T01:05:10;11.34;59.31
76384;SHT30;65204;48.606;7.598;2024-01-06T01:05:41;11.33;59.32
76384;SHT30;65204;48.606;7.598;2024-01-06T01:06:11;11.33;59.32
76384;SHT30;65204;48.606;7.598;2024-01-06T01:06:41;11.31;59.27
76384;SHT30;65204;48.606;7.598;2024-01-06T01:07:12;11.31;59.33
76384;SHT30;65204;48.606;7.598;2024-01-06T01:07:43;11.31;59.32
76384;SHT30;65204;48.606;7.598;2024-01-06T01:08:13;11.31;59.31
76384;SHT30;65204;48.606;7.598;2024-01-06T01:08:43;11.31;59.30
76384;SHT30;65204;48.606;7.598;2024-01-06T01:09:14;11.33;59.30
76384;SHT30;65204;48.606;7.598;2024-01-06T01:09:44;11.30;59.30
76384;SHT30;65204;48.606;7.598;2024-01-06T01:10:15;11.31;59.28
76384;SHT30;65204;48.606;7.598;2024-01-06T01:10:45;11.33;59.24
76384;SHT30;65204;48.606;7.598;2024-01-06T01:11:16;11.31;59.22
76384;SHT30;65204;48.606;7.598;2024-01-06T01:11:47;11.31;59.23
76384;SHT30;65204;48.606;7.598;2024-01-06T01:12:17;11.30;59.20
76384;SHT30;65204;48.606;7.598;2024-01-06T01:12:48;11.29;59.18
76384;SHT30;65204;48.606;7.598;2024-01-06T01:13:18;11.30;59.19
76384;SHT30;65204;48.606;7.598;2024-01-06T01:13:48;11.29;59.18
76384;SHT30;65204;48.606;7.598;2024-01-06T01:14:19;11.30;59.20
76384;SHT30;65204;48.606;7.598;2024-01-06T01:14:50;11.31;59.20
76384;SHT30;65204;48.606;7.598;2024-01-06T01:15:21;11.29;59.19
76384;SHT30;65204;48.606;7.598;2024-01-06T01:15:51;11.29;59.21
76384;SHT30;65204;48.606;7.598;2024-01-06T01:16:22;11.30;59.19
76384;SHT30;65204;48.606;7.598;2024-01-06T01:16:52;11.27;59.20
76384;SHT30;65204;48.606;7.598;2024-01-06T01:17:23;11.29;59.21
76384;SHT30;65204;48.606;7.598;2024-01-06T01:17:53;11.29;59.20
76384;SHT30;65204;48.606;7.598;2024-01-06T01:18:23;11.29;59.19
76384;SHT30;65204;48.606;7.598;2024-01-06T01:18:54;11.27;59.19
76384;SHT30;65204;48.606;7.598;2024-01-06T01:19:24;11.26;59.18
76384;SHT30;65204;48.606;7.598;2024-01-06T01:19:54;11.27;59.18
76384;SHT30;65204;48.606;7.598;2024-01-06T01:20:25;11.26;59.17
76384;SHT30;65204;48.606;7.598;2024-01-06T01:20:55;11.23;59.17
76384;SHT30;65204;48.606;7.598;2024-01-06T01:21:25;11.26;59.22
76384;SHT30;65204;48.606;7.598;2024-01-06T01:21:56;11.27;59.20
76384;SHT30;65204;48.606;7.598;2024-01-06T01:22:26;11.29;59.21
76384;SHT30;65204;48.606;7.598;2024-01-06T01:22:56;11.24;59.20
76384;SHT30;65204;48.606;7.598;2024-01-06T01:23:27;11.27;59.24
76384;SHT30;65204;48.606;7.598;2024-01-06T01:23:57;11.26;59.22
76384;SHT30;65204;48.606;7.598;2024-01-06T01:24:27;11.27;59.21
76384;SHT30;65204;48.606;7.598;2024-01-06T01:24:58;11.26;59.23
76384;SHT30;65204;48.606;7.598;2024-01-06T01:25:28;11.26;59.25
76384;SHT30;65204;48.606;7.598;2024-01-06T01:25:58;11.27;59.25
76384;SHT30;65204;48.606;7.598;2024-01-06T01:26:29;11.26;59.24
76384;SHT30;65204;48.606;7.598;2024-01-06T01:26:59;11.26;59.24
76384;SHT30;65204;48.606;7.598;2024-01-06T01:27:30;11.24;59.22
76384;SHT30;65204;48.606;7.598;2024-01-06T01:28:00;11.24;59.22
76384;SHT30;65204;48.606;7.598;2024-01-06T01:28:30;11.23;59.22
76384;SHT30;65204;48.606;7.598;2024-01-06T01:29:00;11.24;59.19
76384;SHT30;65204;48.606;7.598;2024-01-06T01:29:31;11.26;59.21
76384;SHT30;65204;48.606;7.598;2024-01-06T01:30:01;11.27;59.19
76384;SHT30;65204;48.606;7.598;2024-01-06T01:30:31;11.26;59.17
76384;SHT30;65204;48.606;7.598;2024-01-06T01:31:02;11.26;59.19
76384;SHT30;65204;48.606;7.598;2024-01-06T01:31:33;11.26;59.21
76384;SHT30;65204;48.606;7.598;2024-01-06T01:32:05;11.26;59.23
76384;SHT30;65204;48.606;7.598;2024-01-06T01:32:35;11.26;59.20
76384;SHT30;65204;48.606;7.598;2024-01-06T01:33:05;11.29;59.20
76384;SHT30;65204;48.606;7.598;2024-01-06T01:33:36;11.26;59.19
76384;SHT30;65204;48.606;7.598;2024-01-06T01:34:06;11.27;59.20
76384;SHT30;65204;48.606;7.598;2024-01-06T01:34:36;11.24;59.23
76384;SHT30;65204;48.606;7.598;2024-01-06T01:35:07;11.26;59.24
76384;SHT30;65204;48.606;7.598;2024-01-06T01:35:37;11.26;59.25
76384;SHT30;65204;48.606;7.598;2024-01-06T01:36:08;11.26;59.26
76384;SHT30;65204;48.606;7.598;2024-01-06T01:36:38;11.26;59.29
76384;SHT30;65204;48.606;7.598;2024-01-06T01:37:08;11.26;59.31
76384;SHT30;65204;48.606;7.598;2024-01-06T01:37:38;11.26;59.29
76384;SHT30;65204;48.606;7.598;2024-01-06T01:38:09;11.26;59.31
76384;SHT30;65204;48.606;7.598;2024-01-06T01:38:39;11.26;59.33
76384;SHT30;65204;48.606;7.598;2024-01-06T01:39:09;11.26;59.34
76384;SHT30;65204;48.606;7.598;2024-01-06T01:39:40;11.26;59.33
76384;SHT30;65204;48.606;7.598;2024-01-06T01:40:10;11.26;59.35
76384;SHT30;65204;48.606;7.598;2024-01-06T01:40:41;11.23;59.37
76384;SHT30;65204;48.606;7.598;2024-01-06T01:41:11;11.23;59.35
76384;SHT30;65204;48.606;7.598;2024-01-06T01:41:42;11.26;59.39
76384;SHT30;65204;48.606;7.598;2024-01-06T01:42:13;11.26;59.35
76384;SHT30;65204;48.606;7.598;2024-01-06T01:42:43;11.24;59.35
76384;SHT30;65204;48.606;7.598;2024-01-06T01:43:18;11.24;59.37
76384;SHT30;65204;48.606;7.598;2024-01-06T01:43:48;11.24;59.37
76384;SHT30;65204;48.606;7.598;2024-01-06T01:44:18;11.26;59.36
76384;SHT30;65204;48.606;7.598;2024-01-06T01:44:49;11.26;59.33
76384;SHT30;65204;48.606;7.598;2024-01-06T01:45:19;11.24;59.33
76384;SHT30;65204;48.606;7.598;2024-01-06T01:45:52;11.24;59.36
76384;SHT30;65204;48.606;7.598;2024-01-06T01:46:30;11.22;59.35
76384;SHT30;65204;48.606;7.598;2024-01-06T01:47:00;11.24;59.37
76384;SHT30;65204;48.606;7.598;2024-01-06T01:47:31;11.23;59.38
76384;SHT30;65204;48.606;7.598;2024-01-06T01:48:01;11.24;59.42
76384;SHT30;65204;48.606;7.598;2024-01-06T01:48:31;11.23;59.37
76384;SHT30;65204;48.606;7.598;2024-01-06T01:49:04;11.22;59.41
76384;SHT30;65204;48.606;7.598;2024-01-06T01:49:35;11.23;59.43
76384;SHT30;65204;48.606;7.598;2024-01-06T01:50:07;11.23;59.43
76384;SHT30;65204;48.606;7.598;2024-01-06T01:50:38;11.22;59.40
76384;SHT30;65204;48.606;7.598;2024-01-06T01:51:09;11.24;59.36
76384;SHT30;65204;48.606;7.598;2024-01-06T01:51:39;11.24;59.39
76384;SHT30;65204;48.606;7.598;2024-01-06T01:52:10;11.24;59.43
76384;SHT30;65204;48.606;7.598;2024-01-06T01:52:41;11.22;59.41
76384;SHT30;65204;48.606;7.598;2024-01-06T01:53:12;11.19;59.40
76384;SHT30;65204;48.606;7.598;2024-01-06T01:53:44;11.24;59.38
76384;SHT30;65204;48.606;7.598;2024-01-06T01:54:14;11.23;59.39
76384;SHT30;65204;48.606;7.598;2024-01-06T01:54:46;11.24;59.40
76384;SHT30;65204;48.606;7.598;2024-01-06T01:55:21;11.23;59.38
76384;SHT30;65204;48.606;7.598;2024-01-06T01:55:52;11.23;59.37
76384;SHT30;65204;48.606;7.598;2024-01-06T01:56:24;11.24;59.32
76384;SHT30;65204;48.606;7.598;2024-01-06T01:56:55;11.24;59.33
76384;SHT30;65204;48.606;7.598;2024-01-06T01:57:25;11.23;59.34
76384;SHT30;65204;48.606;7.598;2024-01-06T01:57:56;11.22;59.32
76384;SHT30;65204;48.606;7.598;2024-01-06T01:58:27;11.24;59.33
76384;SHT30;65204;48.606;7.598;2024-01-06T01:58:59;11.23;59.31
76384;SHT30;65204;48.606;7.598;2024-01-06T01:59:29;11.23;59.30
76384;SHT30;65204;48.606;7.598;2024-01-06T02:00:01;11.26;59.29
76384;SHT30;65204;48.606;7.598;2024-01-06T02:00:31;11.24;59.28
76384;SHT30;65204;48.606;7.598;2024-01-06T02:01:01;11.23;59.33
76384;SHT30;65204;48.606;7.598;2024-01-06T02:01:33;11.24;59.30
76384;SHT30;65204;48.606;7.598;2024-01-06T02:02:04;11.26;59.33
76384;SHT30;65204;48.606;7.598;2024-01-06T02:02:34;11.26;59.30
76384;SHT30;65204;48.606;7.598;2024-01-06T02:03:05;11.23;59.28
76384;SHT30;65204;48.606;7.598;2024-01-06T02:03:36;11.26;59.25
76384;SHT30;65204;48.606;7.598;2024-01-06T02:04:08;11.26;59.23
76384;SHT30;65204;48.606;7.598;2024-01-06T02:04:39;11.24;59.24
76384;SHT30;65204;48.606;7.598;2024-01-06T02:05:09;11.26;59.20
76384;SHT30;65204;48.606;7.598;2024-01-06T02:05:40;11.27;59.18
76384;SHT30;65204;48.606;7.598;2024-01-06T02:06:11;11.24;59.15
76384;SHT30;65204;48.606;7.598;2024-01-06T02:06:42;11.26;59.14
76384;SHT30;65204;48.606;7.598;2024-01-06T02:07:12;11.26;59.15
76384;SHT30;65204;48.606;7.598;2024-01-06T02:07:42;11.24;59.14
76384;SHT30;65204;48.606;7.598;2024-01-06T02:08:13;11.26;59.13
76384;SHT30;65204;48.606;7.598;2024-01-06T02:08:43;11.24;59.09
76384;SHT30;65204;48.606;7.598;2024-01-06T02:09:14;11.26;59.13
76384;SHT30;65204;48.606;7.598;2024-01-06T02:09:44;11.26;59.11
76384;SHT30;65204;48.606;7.598;2024-01-06T02:10:14;11.26;59.12
76384;SHT30;65204;48.606;7.598;2024-01-06T02:10:45;11.24;59.10
76384;SHT30;65204;48.606;7.598;2024-01-06T02:11:15;11.23;59.08
76384;SHT30;65204;48.606;7.598;2024-01-06T02:11:45;11.24;59.07
76384;SHT30;65204;48.606;7.598;2024-01-06T02:12:16;11.26;59.05
76384;SHT30;65204;48.606;7.598;2024-01-06T02:12:46;11.29;59.11
76384;SHT30;65204;48.606;7.598;2024-01-06T02:13:16;11.26;59.07
76384;SHT30;65204;48.606;7.598;2024-01-06T02:13:47;11.27;59.06
76384;SHT30;65204;48.606;7.598;2024-01-06T02:14:17;11.27;59.09
76384;SHT30;65204;48.606;7.598;2024-01-06T02:14:47;11.29;59.03
76384;SHT30;65204;48.606;7.598;2024-01-06T02:15:19;11.27;59.05
76384;SHT30;65204;48.606;7.598;2024-01-06T02:15:49;11.27;59.04
76384;SHT30;65204;48.606;7.598;2024-01-06T02:16:20;11.27;59.01
76384;SHT30;65204;48.606;7.598;2024-01-06T02:16:50;11.27;59.03
76384;SHT30;65204;48.606;7.598;2024-01-06T02:17:20;11.26;59.02
76384;SHT30;65204;48.606;7.598;2024-01-06T02:17:51;11.29;59.05
76384;SHT30;65204;48.606;7.598;2024-01-06T02:18:21;11.27;59.03
76384;SHT30;65204;48.606;7.598;2024-01-06T02:18:51;11.26;59.06
76384;SHT30;65204;48.606;7.598;2024-01-06T02:19:22;11.26;59.09
76384;SHT30;65204;48.606;7.598;2024-01-06T02:19:52;11.27;59.10
76384;SHT30;65204;48.606;7.598;2024-01-06T02:20:24;11.26;59.12
76384;SHT30;65204;48.606;7.598;2024-01-06T02:20:58;11.26;59.07
76384;SHT30;65204;48.606;7.598;2024-01-06T02:21:31;11.24;59.09
76384;SHT30;65204;48.606;7.598;2024-01-06T02:22:01;11.24;59.10
76384;SHT30;65204;48.606;7.598;2024-01-06T02:22:32;11.24;59.06
76384;SHT30;65204;48.606;7.598;2024-01-06T02:23:03;11.24;59.03
76384;SHT30;65204;48.606;7.598;2024-01-06T02:23:35;11.23;59.06
76384;SHT30;65204;48.606;7.598;2024-01-06T02:24:06;11.22;59.08
76384;SHT30;65204;48.606;7.598;2024-01-06T02:24:37;11.23;59.08
76384;SHT30;65204;48.606;7.598;2024-01-06T02:25:07;11.22;59.10
76384;SHT30;65204;48.606;7.598;2024-01-06T02:25:42;11.20;59.10
76384;SHT30;65204;48.606;7.598;2024-01-06T02:26:13;11.20;59.11
76384;SHT30;65204;48.606;7.598;2024-01-06T02:26:45;11.19;59.16
76384;SHT30;65204;48.606;7.598;2024-01-06T02:27:15;11.17;59.19
76384;SHT30;65204;48.606;7.598;2024-01-06T02:27:45;11.20;59.16
76384;SHT30;65204;48.606;7.598;2024-01-06T02:28:16;11.20;59.16
76384;SHT30;65204;48.606;7.598;2024-01-06T02:28:46;11.19;59.14
76384;SHT30;65204;48.606;7.598;2024-01-06T02:29:18;11.19;59.14
76384;SHT30;65204;48.606;7.598;2024-01-06T02:29:48;11.17;59.11
76384;SHT30;65204;48.606;7.598;2024-01-06T02:30:18;11.19;59.14
76384;SHT30;65204;48.606;7.598;2024-01-06T02:30:50;11.22;59.10
76384;SHT30;65204;48.606;7.598;2024-01-06T02:31:20;11.20;59.15
76384;SHT30;65204;48.606;7.598;2024-01-06T02:31:50;11.20;59.10
76384;SHT30;65204;48.606;7.598;2024-01-06T02:32:21;11.19;59.11
76384;SHT30;65204;48.606;7.598;2024-01-06T02:32:51;11.17;59.13
76384;SHT30;65204;48.606;7.598;2024-01-06T02:33:21;11.19;59.10
76384;SHT30;65204;48.606;7.598;2024-01-06T02:33:54;11.19;59.11
76384;SHT30;65204;48.606;7.598;2024-01-06T02:34:24;11.17;59.08
76384;SHT30;65204;48.606;7.598;2024-01-06T02:34:54;11.20;59.11
76384;SHT30;65204;48.606;7.598;2024-01-06T02:35:25;11.17;59.09
76384;SHT30;65204;48.606;7.598;2024-01-06T02:35:55;11.20;59.06
76384;SHT30;65204;48.606;7.598;2024-01-06T02:36:25;11.19;59.09
76384;SHT30;65204;48.606;7.598;2024-01-06T02:36:56;11.22;59.06
76384;SHT30;65204;48.606;7.598;2024-01-06T02:37:26;11.20;59.06
76384;SHT30;65204;48.606;7.598;2024-01-06T02:37:56;11.17;59.02
76384;SHT30;65204;48.606;7.598;2024-01-06T02:38:26;11.17;59.01
76384;SHT30;65204;48.606;7.598;2024-01-06T02:38:57;11.17;59.00
76384;SHT30;65204;48.606;7.598;2024-01-06T02:39:27;11.17;59.02
76384;SHT30;65204;48.606;7.598;2024-01-06T02:39:57;11.19;59.04
76384;SHT30;65204;48.606;7.598;2024-01-06T02:40:28;11.16;59.01
76384;SHT30;65204;48.606;7.598;2024-01-06T02:40:58;11.19;58.99
76384;SHT30;65204;48.606;7.598;2024-01-06T02:41:29;11.19;58.97
76384;SHT30;65204;48.606;7.598;2024-01-06T02:41:59;11.16;59.01
76384;SHT30;65204;48.606;7.598;2024-01-06T02:42:29;11.19;58.97
76384;SHT30;65204;48.606;7.598;2024-01-06T02:43:00;11.19;59.00
76384;SHT30;65204;48.606;7.598;2024-01-06T02:43:30;11.17;59.02
76384;SHT30;65204;48.606;7.598;2024-01-06T02:44:00;11.17;59.04
76384;SHT30;65204;48.606;7.598;2024-01-06T02:44:32;11.16;59.05
76384;SHT30;65204;48.606;7.598;2024-01-06T02:45:03;11.17;59.00
76384;SHT30;65204;48.606;7.598;2024-01-06T02:45:33;11.17;59.01
76384;SHT30;65204;48.606;7.598;2024-01-06T02:46:04;11.17;58.98
76384;SHT30;65204;48.606;7.598;2024-01-06T02:46:34;11.16;59.00
76384;SHT30;65204;48.606;7.598;2024-01-06T02:47:04;11.16;58.92
76384;SHT30;65204;48.606;7.598;2024-01-06T02:47:35;11.16;58.97
76384;SHT30;65204;48.606;7.598;2024-01-06T02:48:05;11.16;58.97
76384;SHT30;65204;48.606;7.598;2024-01-06T02:48:36;11.17;58.97
76384;SHT30;65204;48.606;7.598;2024-01-06T02:49:07;11.13;58.98
76384;SHT30;65204;48.606;7.598;2024-01-06T02:49:38;11.16;58.96
76384;SHT30;65204;48.606;7.598;2024-01-06T02:50:08;11.15;58.96
76384;SHT30;65204;48.606;7.598;2024-01-06T02:50:38;11.13;58.94
76384;SHT30;65204;48.606;7.598;2024-01-06T02:51:11;11.16;58.95
76384;SHT30;65204;48.606;7.598;2024-01-06T02:51:41;11.16;58.92
76384;SHT30;65204;48.606;7.598;2024-01-06T02:52:12;11.15;58.91
76384;SHT30;65204;48.606;7.598;2024-01-06T02:52:44;11.17;58.95
76384;SHT30;65204;48.606;7.598;2024-01-06T02:53:15;11.15;58.96
76384;SHT30;65204;48.606;7.598;2024-01-06T02:53:45;11.15;58.94
76384;SHT30;65204;48.606;7.598;2024-01-06T02:54:16;11.13;58.94
76384;SHT30;65204;48.606;7.598;2024-01-06T02:54:46;11.16;58.97
76384;SHT30;65204;48.606;7.598;2024-01-06T02:55:16;11.15;58.99
76384;SHT30;65204;48.606;7.598;2024-01-06T02:55:47;11.13;58.92
76384;SHT30;65204;48.606;7.598;2024-01-06T02:56:17;11.17;58.96
76384;SHT30;65204;48.606;7.598;2024-01-06T02:56:47;11.16;58.91
76384;SHT30;65204;48.606;7.598;2024-01-06T02:57:18;11.16;58.87
76384;SHT30;65204;48.606;7.598;2024-01-06T02:57:48;11.15;58.88
76384;SHT30;65204;48.606;7.598;2024-01-06T02:58:18;11.16;58.91
76384;SHT30;65204;48.606;7.598;2024-01-06T02:58:49;11.16;58.92
76384;SHT30;65204;48.606;7.598;2024-01-06T02:59:19;11.13;58.91
76384;SHT30;65204;48.606;7.598;2024-01-06T02:59:49;11.16;58.92
76384;SHT30;65204;48.606;7.598;2024-01-06T03:00:20;11.15;58.96
76384;SHT30;65204;48.606;7.598;2024-01-06T03:00:50;11.16;58.92
76384;SHT30;65204;48.606;7.598;2024-01-06T03:01:21;11.16;58.91
76384;SHT30;65204;48.606;7.598;2024-01-06T03:01:53;11.15;58.89
76384;SHT30;65204;48.606;7.598;2024-01-06T03:02:23;11.15;58.85
76384;SHT30;65204;48.606;7.598;2024-01-06T03:02:54;11.16;58.83
76384;SHT30;65204;48.606;7.598;2024-01-06T03:03:24;11.17;58.82
76384;SHT30;65204;48.606;7.598;2024-01-06T03:03:54;11.13;58.81
76384;SHT30;65204;48.606;7.598;2024-01-06T03:04:25;11.16;58.84
76384;SHT30;65204;48.606;7.598;2024-01-06T03:04:55;11.16;58.85
76384;SHT30;65204;48.606;7.598;2024-01-06T03:05:26;11.15;58.92
76384;SHT30;65204;48.606;7.598;2024-01-06T03:05:57;11.16;58.94
76384;SHT30;65204;48.606;7.598;2024-01-06T03:06:28;11.16;58.98
76384;SHT30;65204;48.606;7.598;2024-01-06T03:06:58;11.16;59.00
76384;SHT30;65204;48.606;7.598;2024-01-06T03:07:28;11.15;59.07
76384;SHT30;65204;48.606;7.598;2024-01-06T03:07:59;11.13;59.10
76384;SHT30;65204;48.606;7.598;2024-01-06T03:08:29;11.12;59.15
76384;SHT30;65204;48.606;7.598;2024-01-06T03:08:59;11.12;59.18
76384;SHT30;65204;48.606;7.598;2024-01-06T03:09:30;11.13;59.15
76384;SHT30;65204;48.606;7.598;2024-01-06T03:10:00;11.13;59.17
76384;SHT30;65204;48.606;7.598;2024-01-06T03:10:30;11.16;59.13
76384;SHT30;65204;48.606;7.598;2024-01-06T03:11:02;11.13;59.12
76384;SHT30;65204;48.606;7.598;2024-01-06T03:11:33;11.13;59.14
76384;SHT30;65204;48.606;7.598;2024-01-06T03:12:06;11.13;59.12
76384;SHT30;65204;48.606;7.598;2024-01-06T03:12:37;11.12;59.15
76384;SHT30;65204;48.606;7.598;2024-01-06T03:13:07;11.12;59.15
76384;SHT30;65204;48.606;7.598;2024-01-06T03:13:38;11.10;59.19